createdAt,value
2022-10-05T00:00:48.011Z,6.88
2022-10-05T00:05:49.648Z,7.57
2022-10-05T00:10:51.981Z,8.63
2022-10-05T00:16:04.741Z,8.00
2022-10-05T00:21:18.404Z,14.23
2022-10-05T00:26:23.003Z,9.63
2022-10-05T00:31:29.377Z,14.88
2022-10-05T00:36:31.410Z,15.13
2022-10-05T00:41:52.161Z,20.50
2022-10-05T00:52:20.354Z,12.40
2022-10-05T00:57:30.480Z,11.80
2022-10-05T01:03:10.754Z,16.25
2022-10-05T01:08:12.214Z,10.55
2022-10-05T01:13:41.235Z,8.57
2022-10-05T01:19:14.216Z,8.07
2022-10-05T01:24:30.888Z,6.68
2022-10-05T01:29:53.539Z,8.90
2022-10-05T01:35:18.929Z,14.35
2022-10-05T01:40:49.806Z,11.70
2022-10-05T01:46:06.845Z,9.52
2022-10-05T01:51:27.104Z,11.00
2022-10-05T01:56:42.556Z,8.48
2022-10-05T02:02:05.096Z,12.68
2022-10-05T02:07:14.599Z,7.57
2022-10-05T02:12:20.633Z,9.93
2022-10-05T02:17:36.591Z,9.57
2022-10-05T02:22:43.717Z,9.15
2022-10-05T02:28:04.253Z,9.48
2022-10-05T02:33:15.665Z,7.85
2022-10-05T02:38:44.835Z,9.73
2022-10-05T02:44:24.166Z,12.80
2022-10-05T02:49:28.513Z,12.82
2022-10-05T02:54:54.045Z,14.63
2022-10-05T03:00:04.071Z,12.77
2022-10-05T03:05:17.465Z,30.67
2022-10-05T03:10:59.624Z,21.60
2022-10-05T03:16:25.989Z,17.92
2022-10-05T03:21:48.710Z,10.43
2022-10-05T03:27:03.602Z,8.05
2022-10-05T03:32:30.000Z,8.00
2022-10-05T03:37:37.470Z,7.13
2022-10-05T03:43:16.741Z,8.45
2022-10-05T03:48:35.883Z,6.82
2022-10-05T03:53:52.723Z,6.85
2022-10-05T03:59:09.146Z,12.85
2022-10-05T04:04:19.056Z,14.48
2022-10-05T04:09:23.432Z,11.23
2022-10-05T04:14:32.345Z,12.25
2022-10-05T04:19:57.263Z,8.43
2022-10-05T04:25:06.507Z,9.40
2022-10-05T04:30:19.404Z,6.82
2022-10-05T04:35:42.553Z,8.98
2022-10-05T04:41:12.045Z,13.88
2022-10-05T04:46:36.679Z,12.07
2022-10-05T04:51:51.032Z,18.80
2022-10-05T04:56:57.629Z,14.82
2022-10-05T05:02:24.399Z,8.00
2022-10-05T05:07:49.303Z,7.32
2022-10-05T05:13:09.355Z,8.65
2022-10-05T05:18:39.348Z,12.50
2022-10-05T05:24:08.413Z,9.73
2022-10-05T05:29:30.161Z,23.02
2022-10-05T05:34:37.608Z,18.20
2022-10-05T05:40:13.993Z,18.58
2022-10-05T05:45:32.039Z,16.60
2022-10-05T05:50:48.842Z,12.68
2022-10-05T05:55:56.118Z,11.68
2022-10-05T06:01:00.933Z,8.68
2022-10-05T06:06:09.230Z,13.25
2022-10-05T06:11:26.973Z,8.77
2022-10-05T06:16:45.919Z,7.72
2022-10-05T06:21:56.385Z,9.98
2022-10-05T06:27:26.561Z,16.55
2022-10-05T06:32:31.023Z,7.97
2022-10-05T06:37:55.372Z,5.88
2022-10-05T06:43:18.359Z,12.00
2022-10-05T06:48:41.758Z,14.18
2022-10-05T06:54:10.875Z,11.10
2022-10-05T06:59:42.523Z,11.75
2022-10-05T07:05:19.025Z,9.05
2022-10-05T07:10:52.466Z,9.55
2022-10-05T07:15:59.191Z,8.98
2022-10-05T07:21:23.414Z,7.10
2022-10-05T07:26:45.807Z,5.35
2022-10-05T07:32:15.667Z,4.60
2022-10-05T07:37:50.606Z,13.95
2022-10-05T07:42:52.739Z,4.65
2022-10-05T07:48:33.205Z,4.45
2022-10-05T07:53:40.647Z,6.45
2022-10-05T07:58:51.357Z,3.17
2022-10-05T08:04:17.771Z,6.03
2022-10-05T08:09:29.443Z,5.15
2022-10-05T08:14:46.071Z,3.55
2022-10-05T08:19:56.314Z,3.30
2022-10-05T08:25:08.980Z,3.78
2022-10-05T08:30:14.039Z,6.40
2022-10-05T08:35:31.082Z,4.68
2022-10-05T08:40:53.896Z,4.25
2022-10-05T08:46:17.724Z,6.22
2022-10-05T08:51:37.333Z,4.95
2022-10-05T08:57:15.794Z,4.38
2022-10-05T09:02:28.177Z,7.40
2022-10-05T09:07:38.308Z,3.63
2022-10-05T09:12:58.566Z,8.90
2022-10-05T09:18:16.131Z,5.35
2022-10-05T09:23:36.007Z,3.60
2022-10-05T09:29:11.093Z,5.93
2022-10-05T09:34:25.174Z,3.95
2022-10-05T09:39:26.599Z,2.92
2022-10-05T09:44:51.338Z,5.10
2022-10-05T09:50:15.076Z,3.92
2022-10-05T09:55:47.588Z,6.88
2022-10-05T10:00:58.819Z,6.32
2022-10-05T10:06:36.353Z,5.30
2022-10-05T10:11:43.653Z,4.32
2022-10-05T10:17:31.580Z,3.08
2022-10-05T10:23:10.538Z,4.03
2022-10-05T10:28:53.196Z,5.70
2022-10-05T10:34:42.707Z,4.32
2022-10-05T10:40:09.492Z,3.78
2022-10-05T10:45:44.108Z,3.78
2022-10-05T10:51:01.039Z,6.40
2022-10-05T10:56:26.649Z,3.30
2022-10-05T11:01:47.667Z,4.20
2022-10-05T11:07:21.030Z,3.83
2022-10-05T11:12:45.219Z,3.25
2022-10-05T11:18:16.271Z,2.58
2022-10-05T11:23:38.593Z,6.53
2022-10-05T11:28:54.245Z,7.85
2022-10-05T11:34:17.939Z,3.35
2022-10-05T11:39:41.057Z,5.57
2022-10-05T11:45:15.776Z,1.92
2022-10-05T11:50:39.738Z,1.45
2022-10-05T11:55:57.729Z,2.90
2022-10-05T12:01:15.023Z,5.57
2022-10-05T12:06:53.186Z,4.45
2022-10-05T12:12:09.903Z,13.35
2022-10-05T12:17:18.312Z,3.13
2022-10-05T12:22:27.972Z,1.98
2022-10-05T12:27:40.818Z,2.80
2022-10-05T12:32:48.225Z,3.72
2022-10-05T12:37:58.549Z,3.38
2022-10-05T12:43:14.929Z,2.47
2022-10-05T12:48:25.292Z,3.78
2022-10-05T12:53:38.291Z,3.03
2022-10-05T12:59:04.636Z,3.10
2022-10-05T13:04:32.615Z,2.47
2022-10-05T13:09:42.227Z,3.22
2022-10-05T13:15:01.791Z,4.53
2022-10-05T13:20:24.377Z,2.47
2022-10-05T13:25:32.526Z,3.17
2022-10-05T13:30:36.267Z,3.97
2022-10-05T13:35:52.859Z,4.80
2022-10-05T13:41:40.023Z,2.40
2022-10-05T13:46:46.462Z,3.40
2022-10-05T13:52:24.932Z,1.88
2022-10-05T13:57:45.252Z,7.57
2022-10-05T14:02:53.097Z,5.82
2022-10-05T14:07:56.016Z,3.08
2022-10-05T14:13:03.354Z,1.27
2022-10-05T14:18:25.762Z,2.20
2022-10-05T14:23:27.683Z,2.70
2022-10-05T14:28:33.400Z,3.78
2022-10-05T14:33:38.743Z,4.57
2022-10-05T14:39:05.040Z,1.05
2022-10-05T14:44:09.220Z,1.30
2022-10-05T14:49:27.016Z,2.78
2022-10-05T14:54:57.097Z,2.10
2022-10-05T15:00:08.656Z,1.50
2022-10-05T15:05:15.975Z,2.53
2022-10-05T15:10:43.033Z,4.20
2022-10-05T15:15:54.587Z,3.85
2022-10-05T15:21:09.041Z,3.53
2022-10-05T15:26:39.409Z,4.82
2022-10-05T15:31:52.439Z,1.00
2022-10-05T15:37:15.054Z,3.35
2022-10-05T15:42:20.014Z,0.85
2022-10-05T15:47:53.024Z,2.05
2022-10-05T15:53:31.729Z,3.38
2022-10-05T15:58:53.192Z,1.45
2022-10-05T16:04:04.640Z,2.55
2022-10-05T16:09:25.802Z,4.47
2022-10-05T16:14:59.821Z,3.42
2022-10-05T16:20:16.478Z,3.30
2022-10-05T16:25:35.447Z,1.85
2022-10-05T16:30:58.724Z,3.00
2022-10-05T16:36:24.895Z,2.95
2022-10-05T16:41:35.003Z,1.95
2022-10-05T16:46:50.475Z,2.55
2022-10-05T16:52:15.943Z,2.78
2022-10-05T16:57:22.613Z,2.25
2022-10-05T17:02:27.215Z,6.97
2022-10-05T17:07:39.339Z,8.52
2022-10-05T17:13:25.376Z,17.58
2022-10-05T17:18:55.662Z,12.55
2022-10-05T17:24:26.356Z,6.85
2022-10-05T17:29:51.832Z,3.38
2022-10-05T17:35:00.601Z,10.27
2022-10-05T17:40:32.570Z,8.70
2022-10-05T17:45:33.914Z,8.23
2022-10-05T17:50:57.807Z,2.60
2022-10-05T17:56:05.258Z,1.75
2022-10-05T18:01:17.095Z,3.60
2022-10-05T18:06:37.589Z,3.13
2022-10-05T18:11:41.705Z,4.72
2022-10-05T18:17:10.297Z,10.23
2022-10-05T18:22:15.518Z,4.97
2022-10-05T18:27:49.415Z,3.67
2022-10-05T18:33:17.425Z,4.20
2022-10-05T18:38:52.870Z,5.70
2022-10-05T18:44:14.392Z,17.70
2022-10-05T18:49:53.658Z,8.80
2022-10-05T18:55:33.574Z,4.97
2022-10-05T19:01:03.339Z,4.97
2022-10-05T19:06:08.333Z,10.57
2022-10-05T19:11:34.342Z,11.52
2022-10-05T19:17:02.891Z,6.22
2022-10-05T19:22:22.462Z,11.70
2022-10-05T19:28:15.471Z,5.97
2022-10-05T19:33:30.444Z,3.58
2022-10-05T19:38:44.560Z,6.97
2022-10-05T19:44:13.773Z,6.15
2022-10-05T19:49:48.861Z,10.15
2022-10-05T19:55:12.499Z,10.48
2022-10-05T20:00:23.917Z,6.32
2022-10-05T20:05:25.414Z,11.45
2022-10-05T20:10:29.452Z,5.03
2022-10-05T20:15:51.911Z,6.30
2022-10-05T20:20:53.566Z,7.90
2022-10-05T20:26:13.632Z,7.63
2022-10-05T20:31:16.219Z,8.10
2022-10-05T20:36:17.716Z,4.00
2022-10-05T20:41:19.229Z,7.32
2022-10-05T20:46:20.672Z,4.63
2022-10-05T20:51:24.654Z,3.38
2022-10-05T20:56:26.927Z,6.85
2022-10-05T21:01:29.910Z,4.93
2022-10-05T21:06:31.569Z,3.17
2022-10-05T21:11:32.950Z,3.58
2022-10-05T21:16:37.737Z,4.13
2022-10-05T21:21:43.828Z,3.70
2022-10-05T21:26:45.333Z,2.80
2022-10-05T21:31:46.865Z,2.75
2022-10-05T21:36:48.392Z,2.75
2022-10-05T21:41:50.007Z,4.03
2022-10-05T21:46:52.064Z,3.00
2022-10-05T21:51:54.345Z,5.93
2022-10-05T21:56:57.429Z,5.68
2022-10-05T22:01:59.570Z,12.52
2022-10-05T22:07:01.213Z,4.18
2022-10-05T22:12:02.827Z,3.65
2022-10-05T22:17:04.607Z,2.92
2022-10-05T22:22:11.136Z,2.47
2022-10-05T22:27:13.642Z,2.63
2022-10-05T22:32:15.059Z,3.92
2022-10-05T22:37:16.809Z,4.45
2022-10-05T22:42:19.392Z,5.22
2022-10-05T22:47:20.795Z,6.00
2022-10-05T22:52:22.294Z,4.85
2022-10-05T22:57:23.919Z,4.28
2022-10-05T23:02:25.390Z,3.60
2022-10-05T23:07:26.896Z,3.83
2022-10-05T23:12:28.396Z,1.65
2022-10-05T23:17:30.893Z,7.30
2022-10-05T23:22:36.367Z,3.38
2022-10-05T23:27:39.159Z,3.97
2022-10-05T23:32:42.130Z,5.13
2022-10-05T23:37:44.902Z,4.38
2022-10-05T23:42:47.007Z,5.70
2022-10-05T23:47:48.469Z,4.30
2022-10-05T23:52:50.021Z,4.93
2022-10-05T23:57:51.448Z,2.75
